sensor_id;sensor_type;location;lat;lon;timestamp;P1;durP1;ratioP1;P2;durP2;ratioP2
51523;SDS011;37610;51.790;21.590;2023-04-25T00:03:22;9.70;;;6.60;;
51523;SDS011;37610;51.790;21.590;2023-04-25T00:07:26;10.40;;;7.90;;
51523;SDS011;37610;51.790;21.590;2023-04-25T00:11:27;8.70;;;6.30;;
51523;SDS011;37610;51.790;21.590;2023-04-25T00:15:29;9.00;;;6.90;;
51523;SDS011;37610;51.790;21.590;2023-04-25T00:19:31;9.60;;;7.90;;
51523;SDS011;37610;51.790;21.590;2023-04-25T00:23:33;9.20;;;7.10;;
51523;SDS011;37610;51.790;21.590;2023-04-25T00:27:37;9.50;;;7.50;;
51523;SDS011;37610;51.790;21.590;2023-04-25T00:31:40;10.80;;;7.20;;
51523;SDS011;37610;51.790;21.590;2023-04-25T00:35:41;11.60;;;7.40;;
51523;SDS011;37610;51.790;21.590;2023-04-25T00:39:43;13.50;;;7.30;;
51523;SDS011;37610;51.790;21.590;2023-04-25T00:43:44;11.80;;;8.00;;
51523;SDS011;37610;51.790;21.590;2023-04-25T00:47:46;9.70;;;7.60;;
51523;SDS011;37610;51.790;21.590;2023-04-25T00:51:51;8.60;;;6.40;;
51523;SDS011;37610;51.790;21.590;2023-04-25T00:55:52;9.90;;;7.80;;
51523;SDS011;37610;51.790;21.590;2023-04-25T00:59:55;20.20;;;10.70;;
51523;SDS011;37610;51.790;21.590;2023-04-25T01:03:58;13.30;;;8.50;;
51523;SDS011;37610;51.790;21.590;2023-04-25T01:08:00;12.50;;;8.70;;
51523;SDS011;37610;51.790;21.590;2023-04-25T01:12:01;11.90;;;9.00;;
51523;SDS011;37610;51.790;21.590;2023-04-25T01:16:04;12.20;;;8.00;;
51523;SDS011;37610;51.790;21.590;2023-04-25T01:20:05;12.30;;;8.40;;
51523;SDS011;37610;51.790;21.590;2023-04-25T01:24:08;12.60;;;8.10;;
51523;SDS011;37610;51.790;21.590;2023-04-25T01:28:10;10.60;;;8.90;;
51523;SDS011;37610;51.790;21.590;2023-04-25T01:32:11;11.00;;;8.60;;
51523;SDS011;37610;51.790;21.590;2023-04-25T01:36:14;15.50;;;9.80;;
51523;SDS011;37610;51.790;21.590;2023-04-25T01:40:16;14.10;;;9.30;;
51523;SDS011;37610;51.790;21.590;2023-04-25T01:44:19;14.20;;;9.60;;
51523;SDS011;37610;51.790;21.590;2023-04-25T01:48:21;14.40;;;9.90;;
51523;SDS011;37610;51.790;21.590;2023-04-25T01:52:22;14.00;;;9.20;;
51523;SDS011;37610;51.790;21.590;2023-04-25T01:56:24;12.90;;;9.60;;
51523;SDS011;37610;51.790;21.590;2023-04-25T02:00:26;13.80;;;9.80;;
51523;SDS011;37610;51.790;21.590;2023-04-25T02:04:27;20.00;;;11.60;;
51523;SDS011;37610;51.790;21.590;2023-04-25T02:08:29;25.10;;;13.20;;
51523;SDS011;37610;51.790;21.590;2023-04-25T02:12:31;18.10;;;11.30;;
51523;SDS011;37610;51.790;21.590;2023-04-25T02:16:33;18.30;;;11.80;;
51523;SDS011;37610;51.790;21.590;2023-04-25T02:20:34;15.90;;;11.00;;
51523;SDS011;37610;51.790;21.590;2023-04-25T02:24:36;12.90;;;9.60;;
51523;SDS011;37610;51.790;21.590;2023-04-25T02:28:37;17.50;;;9.90;;
51523;SDS011;37610;51.790;21.590;2023-04-25T02:32:39;14.00;;;10.50;;
51523;SDS011;37610;51.790;21.590;2023-04-25T02:36:41;15.90;;;11.00;;
51523;SDS011;37610;51.790;21.590;2023-04-25T02:40:42;15.30;;;10.40;;
51523;SDS011;37610;51.790;21.590;2023-04-25T02:44:44;17.70;;;11.30;;
51523;SDS011;37610;51.790;21.590;2023-04-25T02:48:45;18.00;;;11.20;;
51523;SDS011;37610;51.790;21.590;2023-04-25T02:52:47;16.00;;;11.40;;
51523;SDS011;37610;51.790;21.590;2023-04-25T02:56:48;15.70;;;11.20;;
51523;SDS011;37610;51.790;21.590;2023-04-25T03:00:49;16.20;;;10.90;;
51523;SDS011;37610;51.790;21.590;2023-04-25T03:04:51;17.10;;;11.30;;
51523;SDS011;37610;51.790;21.590;2023-04-25T03:08:52;16.80;;;11.70;;
51523;SDS011;37610;51.790;21.590;2023-04-25T03:12:54;20.80;;;11.10;;
51523;SDS011;37610;51.790;21.590;2023-04-25T03:16:55;13.80;;;10.00;;
51523;SDS011;37610;51.790;21.590;2023-04-25T03:20:57;12.70;;;9.80;;
51523;SDS011;37610;51.790;21.590;2023-04-25T03:24:58;13.60;;;10.50;;
51523;SDS011;37610;51.790;21.590;2023-04-25T03:29:00;15.80;;;10.30;;
51523;SDS011;37610;51.790;21.590;2023-04-25T03:33:01;15.90;;;10.50;;
51523;SDS011;37610;51.790;21.590;2023-04-25T03:37:03;15.30;;;10.30;;
51523;SDS011;37610;51.790;21.590;2023-04-25T03:41:04;15.90;;;11.60;;
51523;SDS011;37610;51.790;21.590;2023-04-25T03:45:06;12.80;;;10.60;;
51523;SDS011;37610;51.790;21.590;2023-04-25T03:49:08;17.40;;;11.00;;
51523;SDS011;37610;51.790;21.590;2023-04-25T03:53:09;15.90;;;10.70;;
51523;SDS011;37610;51.790;21.590;2023-04-25T03:57:11;17.70;;;10.70;;
51523;SDS011;37610;51.790;21.590;2023-04-25T04:01:12;17.50;;;10.30;;
51523;SDS011;37610;51.790;21.590;2023-04-25T04:05:14;14.90;;;10.10;;
51523;SDS011;37610;51.790;21.590;2023-04-25T04:09:15;25.90;;;10.80;;
51523;SDS011;37610;51.790;21.590;2023-04-25T04:13:18;13.40;;;9.90;;
51523;SDS011;37610;51.790;21.590;2023-04-25T04:17:19;14.10;;;10.50;;
51523;SDS011;37610;51.790;21.590;2023-04-25T04:21:20;11.90;;;9.30;;
51523;SDS011;37610;51.790;21.590;2023-04-25T04:25:22;20.00;;;9.90;;
51523;SDS011;37610;51.790;21.590;2023-04-25T04:29:23;13.90;;;10.60;;
51523;SDS011;37610;51.790;21.590;2023-04-25T04:33:25;15.40;;;10.70;;
51523;SDS011;37610;51.790;21.590;2023-04-25T04:37:27;14.10;;;10.00;;
51523;SDS011;37610;51.790;21.590;2023-04-25T04:41:28;14.10;;;10.90;;
51523;SDS011;37610;51.790;21.590;2023-04-25T04:45:30;24.70;;;11.90;;
51523;SDS011;37610;51.790;21.590;2023-04-25T04:49:31;14.80;;;10.70;;
51523;SDS011;37610;51.790;21.590;2023-04-25T04:53:33;14.30;;;11.20;;
51523;SDS011;37610;51.790;21.590;2023-04-25T04:57:35;15.90;;;10.90;;
51523;SDS011;37610;51.790;21.590;2023-04-25T05:01:37;14.70;;;11.30;;
51523;SDS011;37610;51.790;21.590;2023-04-25T05:05:38;15.70;;;10.00;;
51523;SDS011;37610;51.790;21.590;2023-04-25T05:09:41;32.10;;;11.60;;
51523;SDS011;37610;51.790;21.590;2023-04-25T05:13:42;14.10;;;9.50;;
51523;SDS011;37610;51.790;21.590;2023-04-25T05:17:44;19.50;;;9.50;;
51523;SDS011;37610;51.790;21.590;2023-04-25T05:21:45;12.00;;;9.50;;
51523;SDS011;37610;51.790;21.590;2023-04-25T05:25:46;10.80;;;8.80;;
51523;SDS011;37610;51.790;21.590;2023-04-25T05:29:48;18.00;;;9.70;;
51523;SDS011;37610;51.790;21.590;2023-04-25T05:33:49;12.40;;;8.80;;
51523;SDS011;37610;51.790;21.590;2023-04-25T05:37:51;90.80;;;10.80;;
51523;SDS011;37610;51.790;21.590;2023-04-25T05:41:52;14.50;;;8.10;;
51523;SDS011;37610;51.790;21.590;2023-04-25T05:45:54;27.20;;;8.90;;
51523;SDS011;37610;51.790;21.590;2023-04-25T05:49:55;16.80;;;7.50;;
51523;SDS011;37610;51.790;21.590;2023-04-25T05:53:56;8.40;;;6.60;;
51523;SDS011;37610;51.790;21.590;2023-04-25T05:57:58;14.00;;;7.70;;
51523;SDS011;37610;51.790;21.590;2023-04-25T06:01:59;33.70;;;8.00;;
51523;SDS011;37610;51.790;21.590;2023-04-25T06:06:02;35.30;;;8.30;;
51523;SDS011;37610;51.790;21.590;2023-04-25T06:10:03;29.60;;;8.00;;
51523;SDS011;37610;51.790;21.590;2023-04-25T06:14:07;32.70;;;6.20;;
51523;SDS011;37610;51.790;21.590;2023-04-25T06:18:09;16.10;;;7.50;;
51523;SDS011;37610;51.790;21.590;2023-04-25T06:22:10;10.50;;;6.10;;
51523;SDS011;37610;51.790;21.590;2023-04-25T06:26:11;8.20;;;5.70;;
51523;SDS011;37610;51.790;21.590;2023-04-25T06:30:13;8.80;;;5.90;;
51523;SDS011;37610;51.790;21.590;2023-04-25T06:34:14;67.10;;;8.50;;
51523;SDS011;37610;51.790;21.590;2023-04-25T06:38:16;8.00;;;5.20;;
51523;SDS011;37610;51.790;21.590;2023-04-25T06:42:18;50.80;;;7.30;;
51523;SDS011;37610;51.790;21.590;2023-04-25T06:46:19;21.80;;;5.50;;
51523;SDS011;37610;51.790;21.590;2023-04-25T06:50:21;28.10;;;5.40;;
51523;SDS011;37610;51.790;21.590;2023-04-25T06:54:22;9.10;;;4.80;;
51523;SDS011;37610;51.790;21.590;2023-04-25T06:58:26;30.70;;;5.90;;
51523;SDS011;37610;51.790;21.590;2023-04-25T07:02:27;9.60;;;4.80;;
51523;SDS011;37610;51.790;21.590;2023-04-25T07:06:29;6.40;;;4.10;;
51523;SDS011;37610;51.790;21.590;2023-04-25T07:10:30;15.50;;;4.50;;
51523;SDS011;37610;51.790;21.590;2023-04-25T07:14:32;6.60;;;3.90;;
51523;SDS011;37610;51.790;21.590;2023-04-25T07:18:33;70.80;;;6.90;;
51523;SDS011;37610;51.790;21.590;2023-04-25T07:22:35;6.20;;;3.90;;
51523;SDS011;37610;51.790;21.590;2023-04-25T07:26:36;4.80;;;3.70;;
51523;SDS011;37610;51.790;21.590;2023-04-25T07:30:38;5.80;;;4.00;;
51523;SDS011;37610;51.790;21.590;2023-04-25T07:34:40;18.80;;;4.30;;
51523;SDS011;37610;51.790;21.590;2023-04-25T07:38:42;102.10;;;12.10;;
51523;SDS011;37610;51.790;21.590;2023-04-25T07:42:44;4.90;;;3.60;;
51523;SDS011;37610;51.790;21.590;2023-04-25T07:46:45;8.90;;;4.00;;
51523;SDS011;37610;51.790;21.590;2023-04-25T07:50:47;4.10;;;3.30;;
51523;SDS011;37610;51.790;21.590;2023-04-25T07:54:48;226.20;;;18.10;;
51523;SDS011;37610;51.790;21.590;2023-04-25T07:58:50;9.30;;;4.20;;
51523;SDS011;37610;51.790;21.590;2023-04-25T08:02:52;6.70;;;4.40;;
51523;SDS011;37610;51.790;21.590;2023-04-25T08:06:53;8.30;;;5.60;;
51523;SDS011;37610;51.790;21.590;2023-04-25T08:10:55;15.10;;;6.90;;
51523;SDS011;37610;51.790;21.590;2023-04-25T08:14:56;10.20;;;4.70;;
51523;SDS011;37610;51.790;21.590;2023-04-25T08:18:58;5.70;;;3.90;;
51523;SDS011;37610;51.790;21.590;2023-04-25T08:23:00;10.10;;;4.40;;
51523;SDS011;37610;51.790;21.590;2023-04-25T08:27:01;7.40;;;4.20;;
51523;SDS011;37610;51.790;21.590;2023-04-25T08:31:03;6.90;;;4.80;;
51523;SDS011;37610;51.790;21.590;2023-04-25T08:35:05;5.90;;;4.50;;
51523;SDS011;37610;51.790;21.590;2023-04-25T08:39:08;5.60;;;3.90;;
51523;SDS011;37610;51.790;21.590;2023-04-25T08:43:09;7.30;;;4.90;;
51523;SDS011;37610;51.790;21.590;2023-04-25T08:47:14;7.00;;;4.30;;
51523;SDS011;37610;51.790;21.590;2023-04-25T08:51:22;7.00;;;4.60;;
51523;SDS011;37610;51.790;21.590;2023-04-25T08:55:26;10.80;;;5.00;;
51523;SDS011;37610;51.790;21.590;2023-04-25T08:59:28;8.00;;;5.80;;
51523;SDS011;37610;51.790;21.590;2023-04-25T09:03:31;5.80;;;4.70;;
51523;SDS011;37610;51.790;21.590;2023-04-25T09:07:32;4.80;;;4.30;;
51523;SDS011;37610;51.790;21.590;2023-04-25T09:11:34;7.10;;;5.20;;
51523;SDS011;37610;51.790;21.590;2023-04-25T09:15:50;5.00;;;4.30;;
51523;SDS011;37610;51.790;21.590;2023-04-25T09:19:52;7.00;;;4.40;;
51523;SDS011;37610;51.790;21.590;2023-04-25T09:23:54;6.10;;;4.90;;
51523;SDS011;37610;51.790;21.590;2023-04-25T09:27:55;9.80;;;4.90;;
51523;SDS011;37610;51.790;21.590;2023-04-25T09:32:19;7.70;;;4.90;;
51523;SDS011;37610;51.790;21.590;2023-04-25T09:36:19;7.60;;;4.50;;
51523;SDS011;37610;51.790;21.590;2023-04-25T09:40:27;4.30;;;3.30;;
51523;SDS011;37610;51.790;21.590;2023-04-25T09:44:28;5.30;;;4.60;;
51523;SDS011;37610;51.790;21.590;2023-04-25T09:48:30;6.40;;;4.90;;
51523;SDS011;37610;51.790;21.590;2023-04-25T09:52:31;6.20;;;4.50;;
51523;SDS011;37610;51.790;21.590;2023-04-25T09:56:35;5.00;;;3.90;;
51523;SDS011;37610;51.790;21.590;2023-04-25T10:00:37;5.70;;;4.30;;
51523;SDS011;37610;51.790;21.590;2023-04-25T10:04:39;5.90;;;4.80;;
51523;SDS011;37610;51.790;21.590;2023-04-25T10:08:40;5.90;;;4.50;;
51523;SDS011;37610;51.790;21.590;2023-04-25T10:12:44;7.50;;;4.40;;
51523;SDS011;37610;51.790;21.590;2023-04-25T10:20:47;5.50;;;4.20;;
51523;SDS011;37610;51.790;21.590;2023-04-25T10:24:49;5.40;;;3.90;;
51523;SDS011;37610;51.790;21.590;2023-04-25T10:29:01;5.90;;;3.80;;
51523;SDS011;37610;51.790;21.590;2023-04-25T10:33:03;5.10;;;4.20;;
51523;SDS011;37610;51.790;21.590;2023-04-25T10:37:17;6.20;;;4.50;;
51523;SDS011;37610;51.790;21.590;2023-04-25T10:41:20;4.40;;;3.80;;
51523;SDS011;37610;51.790;21.590;2023-04-25T10:49:38;4.90;;;4.00;;
51523;SDS011;37610;51.790;21.590;2023-04-25T10:53:45;5.00;;;3.90;;
51523;SDS011;37610;51.790;21.590;2023-04-25T10:57:47;6.00;;;4.50;;
51523;SDS011;37610;51.790;21.590;2023-04-25T11:01:51;4.40;;;3.30;;
51523;SDS011;37610;51.790;21.590;2023-04-25T11:05:53;6.20;;;4.00;;
51523;SDS011;37610;51.790;21.590;2023-04-25T11:09:55;6.60;;;4.30;;
51523;SDS011;37610;51.790;21.590;2023-04-25T11:13:57;6.10;;;4.90;;
51523;SDS011;37610;51.790;21.590;2023-04-25T11:17:58;5.10;;;3.90;;
51523;SDS011;37610;51.790;21.590;2023-04-25T11:22:00;6.60;;;5.40;;
51523;SDS011;37610;51.790;21.590;2023-04-25T11:26:02;6.30;;;4.70;;
51523;SDS011;37610;51.790;21.590;2023-04-25T11:30:14;5.10;;;4.40;;
51523;SDS011;37610;51.790;21.590;2023-04-25T11:34:17;8.30;;;4.80;;
51523;SDS011;37610;51.790;21.590;2023-04-25T11:38:19;8.40;;;5.20;;
51523;SDS011;37610;51.790;21.590;2023-04-25T11:42:20;6.60;;;5.20;;
51523;SDS011;37610;51.790;21.590;2023-04-25T11:46:22;7.80;;;5.60;;
51523;SDS011;37610;51.790;21.590;2023-04-25T11:50:23;10.70;;;6.00;;
51523;SDS011;37610;51.790;21.590;2023-04-25T11:54:25;7.50;;;5.80;;
51523;SDS011;37610;51.790;21.590;2023-04-25T11:58:27;6.70;;;5.10;;
51523;SDS011;37610;51.790;21.590;2023-04-25T12:02:29;8.40;;;5.90;;
51523;SDS011;37610;51.790;21.590;2023-04-25T12:06:30;10.20;;;7.20;;
51523;SDS011;37610;51.790;21.590;2023-04-25T12:10:31;7.60;;;5.60;;
51523;SDS011;37610;51.790;21.590;2023-04-25T12:14:34;10.20;;;7.00;;
51523;SDS011;37610;51.790;21.590;2023-04-25T12:18:36;7.90;;;6.60;;
51523;SDS011;37610;51.790;21.590;2023-04-25T12:22:37;8.20;;;7.20;;
51523;SDS011;37610;51.790;21.590;2023-04-25T12:26:46;7.10;;;5.60;;
51523;SDS011;37610;51.790;21.590;2023-04-25T12:30:57;7.40;;;6.50;;
51523;SDS011;37610;51.790;21.590;2023-04-25T12:34:59;9.80;;;6.50;;
51523;SDS011;37610;51.790;21.590;2023-04-25T12:39:01;9.90;;;7.60;;
51523;SDS011;37610;51.790;21.590;2023-04-25T12:43:05;7.30;;;6.20;;
51523;SDS011;37610;51.790;21.590;2023-04-25T12:47:06;8.50;;;6.80;;
51523;SDS011;37610;51.790;21.590;2023-04-25T12:51:08;6.80;;;5.90;;
51523;SDS011;37610;51.790;21.590;2023-04-25T12:55:09;7.50;;;6.20;;
51523;SDS011;37610;51.790;21.590;2023-04-25T12:59:11;9.50;;;6.30;;
51523;SDS011;37610;51.790;21.590;2023-04-25T13:03:12;9.10;;;6.40;;
51523;SDS011;37610;51.790;21.590;2023-04-25T13:07:14;8.80;;;6.10;;
51523;SDS011;37610;51.790;21.590;2023-04-25T13:11:15;8.00;;;7.10;;
51523;SDS011;37610;51.790;21.590;2023-04-25T13:15:17;10.90;;;6.40;;
51523;SDS011;37610;51.790;21.590;2023-04-25T13:19:19;6.80;;;5.40;;
51523;SDS011;37610;51.790;21.590;2023-04-25T13:23:21;8.40;;;5.70;;
51523;SDS011;37610;51.790;21.590;2023-04-25T13:27:23;5.60;;;5.00;;
51523;SDS011;37610;51.790;21.590;2023-04-25T13:31:24;7.60;;;5.80;;
51523;SDS011;37610;51.790;21.590;2023-04-25T13:35:25;7.80;;;4.80;;
51523;SDS011;37610;51.790;21.590;2023-04-25T13:39:29;7.10;;;5.10;;
51523;SDS011;37610;51.790;21.590;2023-04-25T13:43:31;6.50;;;4.40;;
51523;SDS011;37610;51.790;21.590;2023-04-25T13:47:33;6.60;;;5.00;;
51523;SDS011;37610;51.790;21.590;2023-04-25T13:51:35;6.40;;;4.20;;
51523;SDS011;37610;51.790;21.590;2023-04-25T13:55:36;7.40;;;4.30;;
51523;SDS011;37610;51.790;21.590;2023-04-25T13:59:38;7.10;;;4.40;;
51523;SDS011;37610;51.790;21.590;2023-04-25T14:03:40;6.30;;;4.10;;
51523;SDS011;37610;51.790;21.590;2023-04-25T14:07:42;6.40;;;4.00;;
51523;SDS011;37610;51.790;21.590;2023-04-25T14:11:44;7.00;;;4.10;;
51523;SDS011;37610;51.790;21.590;2023-04-25T14:15:45;6.40;;;4.40;;
51523;SDS011;37610;51.790;21.590;2023-04-25T14:19:47;5.00;;;3.50;;
51523;SDS011;37610;51.790;21.590;2023-04-25T14:23:49;6.30;;;3.60;;
51523;SDS011;37610;51.790;21.590;2023-04-25T14:27:51;8.10;;;3.70;;
51523;SDS011;37610;51.790;21.590;2023-04-25T14:31:52;5.00;;;3.30;;
51523;SDS011;37610;51.790;21.590;2023-04-25T14:35:55;8.10;;;4.50;;
51523;SDS011;37610;51.790;21.590;2023-04-25T14:39:57;5.80;;;4.00;;
51523;SDS011;37610;51.790;21.590;2023-04-25T14:43:58;7.20;;;4.30;;
51523;SDS011;37610;51.790;21.590;2023-04-25T14:48:00;5.90;;;4.10;;
51523;SDS011;37610;51.790;21.590;2023-04-25T14:52:01;5.90;;;4.00;;
51523;SDS011;37610;51.790;21.590;2023-04-25T14:56:03;5.40;;;3.70;;
51523;SDS011;37610;51.790;21.590;2023-04-25T15:00:04;6.50;;;4.50;;
51523;SDS011;37610;51.790;21.590;2023-04-25T15:04:09;6.30;;;4.40;;
51523;SDS011;37610;51.790;21.590;2023-04-25T15:08:11;5.90;;;4.70;;
51523;SDS011;37610;51.790;21.590;2023-04-25T15:12:13;6.20;;;4.60;;
51523;SDS011;37610;51.790;21.590;2023-04-25T15:16:14;6.20;;;4.10;;
51523;SDS011;37610;51.790;21.590;2023-04-25T15:20:16;7.60;;;4.40;;
51523;SDS011;37610;51.790;21.590;2023-04-25T15:24:18;7.70;;;5.00;;
51523;SDS011;37610;51.790;21.590;2023-04-25T15:28:19;6.40;;;4.60;;
51523;SDS011;37610;51.790;21.590;2023-04-25T15:32:22;8.20;;;5.90;;
51523;SDS011;37610;51.790;21.590;2023-04-25T15:36:24;6.70;;;5.00;;
51523;SDS011;37610;51.790;21.590;2023-04-25T15:40:26;8.20;;;5.50;;
51523;SDS011;37610;51.790;21.590;2023-04-25T15:44:28;7.20;;;5.20;;
51523;SDS011;37610;51.790;21.590;2023-04-25T15:48:29;11.90;;;5.60;;
51523;SDS011;37610;51.790;21.590;2023-04-25T15:52:32;8.00;;;5.60;;
51523;SDS011;37610;51.790;21.590;2023-04-25T15:56:34;9.90;;;5.70;;
51523;SDS011;37610;51.790;21.590;2023-04-25T16:00:36;6.50;;;5.40;;
51523;SDS011;37610;51.790;21.590;2023-04-25T16:04:38;6.80;;;5.30;;
51523;SDS011;37610;51.790;21.590;2023-04-25T16:08:39;7.30;;;5.50;;
51523;SDS011;37610;51.790;21.590;2023-04-25T16:12:41;7.90;;;6.20;;
51523;SDS011;37610;51.790;21.590;2023-04-25T16:16:43;10.70;;;6.90;;
51523;SDS011;37610;51.790;21.590;2023-04-25T16:20:45;7.20;;;6.30;;
51523;SDS011;37610;51.790;21.590;2023-04-25T16:24:46;8.90;;;6.10;;
51523;SDS011;37610;51.790;21.590;2023-04-25T16:28:48;11.90;;;7.10;;
51523;SDS011;37610;51.790;21.590;2023-04-25T16:32:49;9.00;;;6.50;;
51523;SDS011;37610;51.790;21.590;2023-04-25T16:36:51;10.50;;;7.30;;
51523;SDS011;37610;51.790;21.590;2023-04-25T16:40:52;10.50;;;8.30;;
51523;SDS011;37610;51.790;21.590;2023-04-25T16:44:54;9.80;;;7.70;;
51523;SDS011;37610;51.790;21.590;2023-04-25T16:48:56;9.60;;;8.00;;
51523;SDS011;37610;51.790;21.590;2023-04-25T16:52:57;10.30;;;7.70;;
51523;SDS011;37610;51.790;21.590;2023-04-25T16:56:58;10.20;;;7.90;;
51523;SDS011;37610;51.790;21.590;2023-04-25T17:01:01;9.90;;;6.90;;
51523;SDS011;37610;51.790;21.590;2023-04-25T17:05:03;10.50;;;7.70;;
51523;SDS011;37610;51.790;21.590;2023-04-25T17:09:05;11.10;;;8.10;;
51523;SDS011;37610;51.790;21.590;2023-04-25T17:13:08;13.40;;;7.50;;
51523;SDS011;37610;51.790;21.590;2023-04-25T17:17:09;11.60;;;6.90;;
51523;SDS011;37610;51.790;21.590;2023-04-25T17:21:11;10.90;;;6.60;;
51523;SDS011;37610;51.790;21.590;2023-04-25T17:25:12;11.70;;;8.40;;
51523;SDS011;37610;51.790;21.590;2023-04-25T17:29:13;10.30;;;7.30;;
51523;SDS011;37610;51.790;21.590;2023-04-25T17:33:15;13.30;;;8.50;;
51523;SDS011;37610;51.790;21.590;2023-04-25T17:37:17;11.80;;;7.40;;
51523;SDS011;37610;51.790;21.590;2023-04-25T17:41:19;11.90;;;8.60;;
51523;SDS011;37610;51.790;21.590;2023-04-25T17:45:21;10.80;;;8.20;;
51523;SDS011;37610;51.790;21.590;2023-04-25T17:49:22;10.60;;;7.60;;
51523;SDS011;37610;51.790;21.590;2023-04-25T17:53:24;10.50;;;7.30;;
51523;SDS011;37610;51.790;21.590;2023-04-25T17:57:25;12.20;;;7.80;;
51523;SDS011;37610;51.790;21.590;2023-04-25T18:01:27;14.00;;;8.90;;
51523;SDS011;37610;51.790;21.590;2023-04-25T18:05:28;9.60;;;6.50;;
51523;SDS011;37610;51.790;21.590;2023-04-25T18:09:30;14.60;;;8.40;;
51523;SDS011;37610;51.790;21.590;2023-04-25T18:13:32;11.20;;;7.90;;
51523;SDS011;37610;51.790;21.590;2023-04-25T18:17:34;11.50;;;8.40;;
51523;SDS011;37610;51.790;21.590;2023-04-25T18:21:40;10.50;;;7.80;;
51523;SDS011;37610;51.790;21.590;2023-04-25T18:25:42;12.20;;;7.10;;
51523;SDS011;37610;51.790;21.590;2023-04-25T18:29:43;12.90;;;7.30;;
51523;SDS011;37610;51.790;21.590;2023-04-25T18:33:45;10.70;;;7.80;;
51523;SDS011;37610;51.790;21.590;2023-04-25T18:37:47;9.50;;;6.50;;
51523;SDS011;37610;51.790;21.590;2023-04-25T18:42:13;10.70;;;5.80;;
51523;SDS011;37610;51.790;21.590;2023-04-25T18:46:15;8.20;;;5.60;;
51523;SDS011;37610;51.790;21.590;2023-04-25T18:50:17;7.50;;;5.40;;
